createdAt,value
2023-02-06T00:01:32.091Z,2.80
2023-02-06T00:04:01.056Z,2.70
2023-02-06T00:06:29.401Z,2.60
2023-02-06T00:08:57.377Z,2.60
2023-02-06T00:11:26.027Z,2.40
2023-02-06T00:13:55.187Z,2.40
2023-02-06T00:16:25.659Z,2.50
2023-02-06T00:18:56.368Z,2.30
2023-02-06T00:21:26.124Z,2.20
2023-02-06T00:23:55.631Z,2.20
2023-02-06T00:26:25.590Z,2.10
2023-02-06T00:28:53.758Z,2.10
2023-02-06T00:31:22.070Z,2.10
2023-02-06T00:33:50.348Z,2.10
2023-02-06T00:36:19.820Z,2.20
2023-02-06T00:38:47.893Z,2.20
2023-02-06T00:41:15.898Z,2.20
2023-02-06T00:43:44.144Z,2.20
2023-02-06T00:46:12.759Z,2.10
2023-02-06T00:48:42.064Z,2.30
2023-02-06T00:51:10.401Z,2.10
2023-02-06T00:53:40.174Z,2.10
2023-02-06T00:56:08.340Z,2.10
2023-02-06T00:58:36.331Z,2.10
2023-02-06T01:01:04.596Z,2.10
2023-02-06T01:03:32.623Z,2.20
2023-02-06T01:06:00.591Z,2.30
2023-02-06T01:08:28.677Z,2.40
2023-02-06T01:10:58.047Z,2.40
2023-02-06T01:13:26.328Z,2.40
2023-02-06T01:15:54.401Z,2.50
2023-02-06T01:18:22.563Z,2.40
2023-02-06T01:20:50.717Z,2.30
2023-02-06T01:23:18.686Z,2.30
2023-02-06T01:25:46.650Z,2.10
2023-02-06T01:28:16.711Z,2.10
2023-02-06T01:30:44.765Z,2.00
2023-02-06T01:33:12.861Z,1.90
2023-02-06T01:35:40.893Z,1.80
2023-02-06T01:38:08.929Z,1.90
2023-02-06T01:40:37.164Z,1.80
2023-02-06T01:43:05.220Z,1.80
2023-02-06T01:45:46.621Z,1.80
2023-02-06T01:48:20.155Z,1.70
2023-02-06T01:50:52.290Z,1.70
2023-02-06T01:53:21.850Z,1.60
2023-02-06T01:55:52.310Z,1.50
2023-02-06T01:58:25.379Z,1.50
2023-02-06T02:00:56.037Z,1.40
2023-02-06T02:03:24.212Z,1.50
2023-02-06T02:05:53.748Z,1.40
2023-02-06T02:08:25.648Z,1.30
2023-02-06T02:10:53.841Z,1.20
2023-02-06T02:13:21.794Z,1.20
2023-02-06T02:15:59.807Z,1.10
2023-02-06T02:18:41.804Z,1.10
2023-02-06T02:21:37.051Z,1.00
2023-02-06T02:24:14.682Z,1.00
2023-02-06T02:27:14.701Z,1.20
2023-02-06T02:30:23.331Z,1.00
2023-02-06T02:33:21.544Z,1.10
2023-02-06T02:35:56.408Z,1.20
2023-02-06T02:38:40.763Z,1.30
2023-02-06T02:41:16.383Z,1.40
2023-02-06T02:43:46.469Z,1.50
2023-02-06T02:46:24.610Z,1.60
2023-02-06T02:48:55.676Z,1.70
2023-02-06T02:51:26.072Z,1.70
2023-02-06T02:53:56.858Z,1.80
2023-02-06T02:56:28.527Z,1.80
2023-02-06T02:58:59.867Z,1.90
2023-02-06T03:01:32.019Z,1.90
2023-02-06T03:04:05.628Z,2.00
2023-02-06T03:06:54.332Z,2.10
2023-02-06T03:09:33.227Z,2.10
2023-02-06T03:12:11.328Z,2.20
2023-02-06T03:14:46.907Z,2.30
2023-02-06T03:17:20.535Z,2.30
2023-02-06T03:19:54.453Z,2.40
2023-02-06T03:22:25.598Z,2.30
2023-02-06T03:24:55.088Z,2.40
2023-02-06T03:27:25.694Z,2.20
2023-02-06T03:29:55.699Z,2.10
2023-02-06T03:32:26.619Z,2.10
2023-02-06T03:35:01.004Z,2.10
2023-02-06T03:37:31.317Z,2.10
2023-02-06T03:40:01.888Z,2.10
2023-02-06T03:42:31.900Z,2.00
2023-02-06T03:45:05.441Z,2.10
2023-02-06T03:47:36.396Z,2.10
2023-02-06T03:50:05.668Z,2.10
2023-02-06T03:52:39.609Z,2.20
2023-02-06T03:55:11.690Z,2.20
2023-02-06T03:57:40.197Z,2.20
2023-02-06T04:00:09.402Z,2.30
2023-02-06T04:02:39.509Z,2.30
2023-02-06T04:05:07.927Z,2.30
2023-02-06T04:07:37.828Z,2.40
2023-02-06T04:10:06.501Z,2.40
2023-02-06T04:12:34.503Z,2.50
2023-02-06T04:15:02.668Z,2.80
2023-02-06T04:17:46.441Z,2.50
2023-02-06T04:20:18.123Z,2.50
2023-02-06T04:22:47.873Z,2.50
2023-02-06T04:25:16.109Z,2.50
2023-02-06T04:27:44.233Z,2.50
2023-02-06T04:30:13.618Z,2.40
2023-02-06T04:32:41.607Z,2.50
2023-02-06T04:35:09.755Z,2.50
2023-02-06T04:37:37.777Z,2.60
2023-02-06T04:40:08.068Z,2.60
2023-02-06T04:42:36.135Z,2.60
2023-02-06T04:45:04.194Z,2.60
2023-02-06T04:47:32.234Z,2.50
2023-02-06T04:50:00.407Z,2.60
2023-02-06T04:52:28.414Z,2.60
2023-02-06T04:54:56.386Z,2.60
2023-02-06T04:57:26.816Z,2.60
2023-02-06T04:59:54.883Z,2.60
2023-02-06T05:02:22.891Z,2.60
2023-02-06T05:04:50.876Z,2.60
2023-02-06T05:07:19.168Z,2.60
2023-02-06T05:09:47.193Z,2.50
2023-02-06T05:12:15.250Z,2.50
2023-02-06T05:14:44.636Z,2.60
2023-02-06T05:17:12.672Z,2.90
2023-02-06T05:19:40.736Z,2.50
2023-02-06T05:22:09.253Z,2.60
2023-02-06T05:24:37.406Z,2.60
2023-02-06T05:27:05.593Z,2.60
2023-02-06T05:29:33.568Z,2.60
2023-02-06T05:32:03.051Z,2.60
2023-02-06T05:34:31.141Z,2.60
2023-02-06T05:36:59.197Z,2.50
2023-02-06T05:39:27.312Z,2.60
2023-02-06T05:41:55.362Z,2.60
2023-02-06T05:44:23.384Z,2.50
2023-02-06T05:46:51.510Z,2.50
2023-02-06T05:49:21.036Z,2.50
2023-02-06T05:51:49.079Z,2.40
2023-02-06T05:54:18.445Z,2.40
2023-02-06T05:56:46.508Z,2.40
2023-02-06T05:59:14.529Z,2.30
2023-02-06T06:01:42.634Z,2.30
2023-02-06T06:04:10.750Z,2.30
2023-02-06T06:06:40.185Z,2.60
2023-02-06T06:09:08.233Z,2.30
2023-02-06T06:11:36.274Z,2.30
2023-02-06T06:14:04.582Z,2.30
2023-02-06T06:16:32.626Z,2.30
2023-02-06T06:19:01.785Z,2.30
2023-02-06T06:21:30.015Z,2.30
2023-02-06T06:23:59.456Z,2.30
2023-02-06T06:26:27.479Z,2.40
2023-02-06T06:28:55.516Z,2.40
2023-02-06T06:31:23.709Z,2.40
2023-02-06T06:33:52.811Z,2.40
2023-02-06T06:36:21.842Z,2.40
2023-02-06T06:38:49.871Z,2.40
2023-02-06T06:41:19.209Z,2.40
2023-02-06T06:43:47.270Z,2.40
2023-02-06T06:46:15.389Z,2.40
2023-02-06T06:48:43.422Z,2.30
2023-02-06T06:51:11.520Z,2.30
2023-02-06T06:53:40.096Z,2.30
2023-02-06T06:56:11.364Z,2.30
2023-02-06T06:58:41.236Z,2.30
2023-02-06T07:01:09.797Z,2.30
2023-02-06T07:03:38.053Z,2.20
2023-02-06T07:06:06.741Z,2.20
2023-02-06T07:08:36.003Z,2.40
2023-02-06T07:11:04.119Z,2.10
2023-02-06T07:13:32.134Z,2.20
2023-02-06T07:16:01.578Z,2.20
2023-02-06T07:18:29.640Z,2.10
2023-02-06T07:20:58.455Z,2.20
2023-02-06T07:23:26.910Z,2.10
2023-02-06T07:25:56.592Z,2.00
2023-02-06T07:28:24.605Z,2.50
2023-02-06T07:30:52.830Z,2.10
2023-02-06T07:33:22.585Z,2.10
2023-02-06T07:35:50.732Z,2.20
2023-02-06T07:38:18.771Z,2.30
2023-02-06T07:40:46.881Z,2.30
2023-02-06T07:43:15.523Z,2.30
2023-02-06T07:45:43.978Z,2.30
2023-02-06T07:48:12.403Z,2.70
2023-02-06T07:50:41.860Z,2.40
2023-02-06T07:53:09.984Z,2.30
2023-02-06T07:55:38.824Z,2.50
2023-02-06T07:58:06.997Z,2.50
2023-02-06T08:00:35.162Z,2.40
2023-02-06T08:03:03.347Z,2.60
2023-02-06T08:05:32.178Z,2.50
2023-02-06T08:08:01.878Z,2.50
2023-02-06T08:10:29.988Z,2.50
2023-02-06T08:12:58.140Z,2.60
2023-02-06T08:15:26.289Z,2.70
2023-02-06T08:17:54.645Z,2.70
2023-02-06T08:20:22.820Z,2.70
2023-02-06T08:22:51.088Z,2.70
2023-02-06T08:25:20.748Z,2.80
2023-02-06T08:27:48.882Z,2.90
2023-02-06T08:30:17.154Z,3.00
2023-02-06T08:32:45.362Z,3.10
2023-02-06T08:35:13.549Z,3.00
2023-02-06T08:37:41.722Z,3.30
2023-02-06T08:40:11.194Z,3.40
2023-02-06T08:42:40.720Z,3.50
2023-02-06T08:45:09.820Z,3.60
2023-02-06T08:47:37.983Z,3.50
2023-02-06T08:50:06.700Z,3.50
2023-02-06T08:52:34.903Z,3.50
2023-02-06T08:55:02.936Z,3.50
2023-02-06T08:57:31.110Z,3.50
2023-02-06T09:00:00.626Z,3.60
2023-02-06T09:02:28.839Z,3.90
2023-02-06T09:04:57.098Z,3.80
2023-02-06T09:07:25.585Z,3.80
2023-02-06T09:09:53.757Z,3.90
2023-02-06T09:12:22.205Z,3.90
2023-02-06T09:14:50.805Z,3.90
2023-02-06T09:17:20.519Z,3.80
2023-02-06T09:19:48.639Z,3.90
2023-02-06T09:22:16.779Z,3.90
2023-02-06T09:24:44.941Z,3.90
2023-02-06T09:27:13.120Z,4.10
2023-02-06T09:29:41.249Z,4.00
2023-02-06T09:32:09.568Z,4.30
2023-02-06T09:34:39.353Z,4.70
2023-02-06T09:37:07.498Z,4.50
2023-02-06T09:39:35.676Z,4.70
2023-02-06T09:42:07.725Z,4.80
2023-02-06T09:44:39.384Z,4.70
2023-02-06T09:47:18.021Z,4.90
2023-02-06T09:49:51.284Z,5.10
2023-02-06T09:52:35.539Z,5.10
2023-02-06T09:55:11.618Z,5.10
2023-02-06T09:57:46.863Z,5.00
2023-02-06T10:00:29.419Z,4.80
2023-02-06T10:03:20.080Z,4.60
2023-02-06T10:06:00.438Z,4.50
2023-02-06T10:08:34.469Z,4.50
2023-02-06T10:11:09.435Z,4.50
2023-02-06T10:13:43.732Z,4.50
2023-02-06T10:16:22.436Z,4.60
2023-02-06T10:18:55.154Z,5.10
2023-02-06T10:21:29.730Z,5.00
2023-02-06T10:24:03.766Z,5.20
2023-02-06T10:26:33.075Z,5.10
2023-02-06T10:29:01.727Z,5.00
2023-02-06T10:31:49.342Z,5.20
2023-02-06T10:34:47.349Z,4.70
2023-02-06T10:37:28.695Z,4.80
2023-02-06T10:40:07.782Z,4.60
2023-02-06T10:42:47.877Z,4.50
2023-02-06T10:45:25.872Z,4.50
2023-02-06T10:47:58.303Z,4.40
2023-02-06T10:50:30.159Z,4.40
2023-02-06T10:53:03.938Z,4.70
2023-02-06T10:55:39.548Z,4.20
2023-02-06T10:58:17.977Z,4.30
2023-02-06T11:00:47.923Z,4.30
2023-02-06T11:03:20.183Z,4.40
2023-02-06T11:05:50.119Z,4.30
2023-02-06T11:08:23.815Z,4.30
2023-02-06T11:10:52.171Z,4.40
2023-02-06T11:13:26.891Z,4.60
2023-02-06T11:16:01.597Z,4.80
2023-02-06T11:18:34.512Z,5.40
2023-02-06T11:21:03.388Z,5.70
2023-02-06T11:23:35.035Z,6.30
2023-02-06T11:26:10.643Z,6.10
2023-02-06T11:28:50.336Z,6.00
2023-02-06T11:31:21.395Z,6.50
2023-02-06T11:33:52.639Z,6.40
2023-02-06T11:36:27.059Z,6.50
2023-02-06T11:38:58.835Z,6.40
2023-02-06T11:41:27.408Z,6.10
2023-02-06T11:44:02.402Z,6.00
2023-02-06T11:46:32.543Z,5.70
2023-02-06T11:49:07.498Z,5.60
2023-02-06T11:51:51.571Z,5.50
2023-02-06T11:54:24.326Z,5.30
2023-02-06T11:57:05.071Z,5.30
2023-02-06T11:59:35.072Z,4.90
2023-02-06T12:02:22.706Z,4.90
2023-02-06T12:04:51.523Z,4.80
2023-02-06T12:07:25.987Z,4.80
2023-02-06T12:09:55.593Z,4.80
2023-02-06T12:12:28.340Z,4.80
2023-02-06T12:14:59.460Z,4.90
2023-02-06T12:17:32.796Z,5.10
2023-02-06T12:20:06.260Z,5.40
2023-02-06T12:22:40.231Z,4.80
2023-02-06T12:25:23.775Z,4.80
2023-02-06T12:27:54.381Z,4.70
2023-02-06T12:30:35.764Z,4.60
2023-02-06T12:33:10.633Z,4.50
2023-02-06T12:35:46.673Z,4.30
2023-02-06T12:38:24.431Z,4.30
2023-02-06T12:41:10.857Z,4.20
2023-02-06T12:43:40.428Z,4.20
2023-02-06T12:46:13.593Z,4.20
2023-02-06T12:48:46.721Z,4.30
2023-02-06T12:51:20.048Z,4.20
2023-02-06T12:53:53.217Z,4.20
2023-02-06T12:56:29.879Z,4.20
2023-02-06T12:59:12.195Z,4.50
2023-02-06T13:01:50.850Z,4.20
2023-02-06T13:04:23.600Z,4.20
2023-02-06T13:06:55.734Z,4.30
2023-02-06T13:09:27.911Z,4.40
2023-02-06T13:12:08.798Z,4.40
2023-02-06T13:14:39.821Z,4.40
2023-02-06T13:17:11.767Z,4.50
2023-02-06T13:20:00.687Z,4.40
2023-02-06T13:22:49.542Z,4.50
2023-02-06T13:25:53.617Z,4.60
2023-02-06T13:28:43.655Z,4.60
2023-02-06T13:31:27.287Z,4.80
2023-02-06T13:33:58.899Z,4.80
2023-02-06T13:36:42.439Z,4.80
2023-02-06T13:39:28.927Z,4.80
2023-02-06T13:42:00.342Z,4.90
2023-02-06T13:44:33.540Z,4.90
2023-02-06T13:47:32.222Z,4.90
2023-02-06T13:50:49.066Z,5.00
2023-02-06T13:53:41.961Z,5.10
2023-02-06T13:56:27.864Z,5.30
2023-02-06T13:58:57.646Z,5.40
2023-02-06T14:01:31.681Z,5.50
2023-02-06T14:04:00.849Z,5.80
2023-02-06T14:07:05.046Z,5.80
2023-02-06T14:10:06.120Z,5.90
2023-02-06T14:12:49.939Z,5.90
2023-02-06T14:15:28.734Z,6.00
2023-02-06T14:18:20.600Z,6.10
2023-02-06T14:21:00.196Z,6.00
2023-02-06T14:23:39.565Z,6.20
2023-02-06T14:26:23.804Z,6.10
2023-02-06T14:29:00.548Z,6.30
2023-02-06T14:31:46.432Z,6.30
2023-02-06T14:34:44.586Z,6.40
2023-02-06T14:37:47.153Z,6.30
2023-02-06T14:40:20.176Z,6.10
2023-02-06T14:42:49.453Z,6.00
2023-02-06T14:45:33.736Z,6.00
2023-02-06T14:48:15.896Z,6.00
2023-02-06T14:50:49.992Z,5.90
2023-02-06T14:53:23.143Z,5.90
2023-02-06T14:55:51.611Z,5.80
2023-02-06T14:58:25.944Z,5.80
2023-02-06T15:00:55.035Z,5.70
2023-02-06T15:03:28.207Z,5.60
2023-02-06T15:06:03.829Z,5.60
2023-02-06T15:08:33.367Z,5.40
2023-02-06T15:11:04.084Z,5.30
2023-02-06T15:13:35.924Z,5.20
2023-02-06T15:16:06.387Z,5.00
2023-02-06T15:18:35.123Z,4.90
2023-02-06T15:21:06.809Z,4.70
2023-02-06T15:23:55.430Z,4.60
2023-02-06T15:26:32.091Z,4.50
2023-02-06T15:29:01.826Z,4.40
2023-02-06T15:31:31.256Z,4.10
2023-02-06T15:34:02.164Z,4.40
2023-02-06T15:36:34.324Z,4.00
2023-02-06T15:39:05.172Z,3.80
2023-02-06T15:41:33.798Z,3.70
2023-02-06T15:44:10.734Z,3.70
2023-02-06T15:46:39.904Z,3.60
2023-02-06T15:49:15.435Z,3.60
2023-02-06T15:51:53.725Z,3.70
2023-02-06T15:54:24.359Z,3.40
2023-02-06T15:56:56.083Z,3.30
2023-02-06T15:59:28.611Z,3.20
2023-02-06T16:01:59.688Z,3.10
2023-02-06T16:04:32.512Z,3.10
2023-02-06T16:07:06.978Z,2.90
2023-02-06T16:09:40.508Z,2.80
2023-02-06T16:12:09.508Z,2.50
2023-02-06T16:14:40.702Z,2.60
2023-02-06T16:17:26.560Z,2.50
2023-02-06T16:19:56.615Z,2.50
2023-02-06T16:22:28.460Z,2.30
2023-02-06T16:25:15.459Z,2.30
2023-02-06T16:27:46.365Z,2.20
2023-02-06T16:30:28.220Z,2.10
2023-02-06T16:32:59.265Z,2.00
2023-02-06T16:35:27.996Z,1.80
2023-02-06T16:37:57.844Z,1.80
2023-02-06T16:40:27.209Z,1.80
2023-02-06T16:42:55.854Z,1.70
2023-02-06T16:45:26.374Z,1.70
2023-02-06T16:47:55.228Z,1.60
2023-02-06T16:50:23.942Z,1.50
2023-02-06T16:52:55.528Z,1.50
2023-02-06T16:55:28.918Z,1.40
2023-02-06T16:58:00.579Z,1.30
2023-02-06T17:00:31.436Z,1.30
2023-02-06T17:03:00.484Z,1.20
2023-02-06T17:05:29.495Z,1.20
2023-02-06T17:07:57.667Z,1.10
2023-02-06T17:10:28.047Z,1.00
2023-02-06T17:12:56.168Z,0.90
2023-02-06T17:15:24.310Z,0.90
2023-02-06T17:17:54.691Z,0.80
2023-02-06T17:20:32.546Z,0.90
2023-02-06T17:23:00.919Z,0.90
2023-02-06T17:25:30.558Z,0.80
2023-02-06T17:27:59.042Z,0.70
2023-02-06T17:30:27.863Z,0.60
2023-02-06T17:32:57.549Z,0.60
2023-02-06T17:35:25.891Z,0.50
2023-02-06T17:37:54.610Z,0.50
2023-02-06T17:40:26.817Z,0.40
2023-02-06T17:42:56.955Z,0.40
2023-02-06T17:45:25.856Z,0.40
2023-02-06T17:47:54.499Z,0.20
2023-02-06T17:50:24.981Z,0.20
2023-02-06T17:52:55.718Z,0.20
2023-02-06T17:55:24.784Z,0.10
2023-02-06T17:57:53.599Z,0.10
2023-02-06T18:00:24.453Z,0.00
2023-02-06T18:02:53.589Z,-0.10
2023-02-06T18:05:22.636Z,-0.10
2023-02-06T18:07:51.952Z,-0.20
2023-02-06T18:10:22.719Z,-0.30
2023-02-06T18:12:51.224Z,-0.20
2023-02-06T18:15:19.910Z,-0.30
2023-02-06T18:17:49.753Z,-0.30
2023-02-06T18:20:18.395Z,-0.30
2023-02-06T18:22:47.423Z,-0.30
2023-02-06T18:25:16.702Z,-0.30
2023-02-06T18:27:46.285Z,-0.30
2023-02-06T18:30:17.306Z,-0.40
2023-02-06T18:32:46.144Z,-0.40
2023-02-06T18:35:16.494Z,-0.40
2023-02-06T18:37:44.917Z,-0.40
2023-02-06T18:40:14.019Z,-0.40
2023-02-06T18:42:51.537Z,-0.50
2023-02-06T18:45:20.149Z,-0.50
2023-02-06T18:47:48.650Z,-0.50
2023-02-06T18:50:20.871Z,-0.50
2023-02-06T18:52:50.025Z,-0.50
2023-02-06T18:55:18.214Z,-0.50
2023-02-06T18:57:49.268Z,-0.50
2023-02-06T19:00:20.202Z,-0.60
2023-02-06T19:02:48.938Z,-0.60
2023-02-06T19:05:18.812Z,-0.70
2023-02-06T19:07:50.668Z,-0.70
2023-02-06T19:10:19.747Z,-0.70
2023-02-06T19:12:48.691Z,-0.60
2023-02-06T19:15:16.991Z,-0.60
2023-02-06T19:17:45.229Z,-0.60
2023-02-06T19:20:14.064Z,-0.60
2023-02-06T19:22:43.608Z,-0.60
2023-02-06T19:25:14.611Z,-0.30
2023-02-06T19:27:43.685Z,-0.50
2023-02-06T19:30:13.990Z,-0.30
2023-02-06T19:32:43.457Z,-0.50
2023-02-06T19:35:12.120Z,-0.40
2023-02-06T19:37:40.350Z,-0.40
2023-02-06T19:40:11.235Z,-0.40
2023-02-06T19:42:40.619Z,-0.40
2023-02-06T19:45:09.111Z,-0.40
2023-02-06T19:47:37.674Z,-0.40
2023-02-06T19:50:06.627Z,-0.40
2023-02-06T19:52:35.438Z,-0.40
2023-02-06T19:55:03.854Z,-0.40
2023-02-06T19:57:33.582Z,-0.40
2023-02-06T20:00:01.864Z,-0.40
2023-02-06T20:02:30.204Z,-0.40
2023-02-06T20:05:00.365Z,-0.40
2023-02-06T20:07:29.794Z,-0.40
2023-02-06T20:09:58.187Z,-0.40
2023-02-06T20:12:26.878Z,-0.40
2023-02-06T20:14:56.733Z,-0.50
2023-02-06T20:17:26.973Z,-0.50
2023-02-06T20:19:55.574Z,-0.60
2023-02-06T20:22:24.144Z,-0.60
2023-02-06T20:24:52.458Z,-0.60
2023-02-06T20:27:20.602Z,-0.70
2023-02-06T20:29:48.785Z,-0.70
2023-02-06T20:32:19.501Z,-0.80
2023-02-06T20:34:47.906Z,-0.70
2023-02-06T20:37:17.728Z,-0.80
2023-02-06T20:39:45.853Z,-0.80
2023-02-06T20:42:14.016Z,-0.80
2023-02-06T20:44:45.100Z,-0.90
2023-02-06T20:47:13.274Z,-0.90
2023-02-06T20:49:43.002Z,-1.00
2023-02-06T20:52:11.292Z,-1.10
2023-02-06T20:54:41.388Z,-1.20
2023-02-06T20:57:09.781Z,-1.20
2023-02-06T20:59:38.010Z,-1.30
2023-02-06T21:02:06.814Z,-1.40
2023-02-06T21:04:35.400Z,-1.50
2023-02-06T21:07:04.967Z,-1.30
2023-02-06T21:09:33.293Z,-1.50
2023-02-06T21:12:01.657Z,-1.60
2023-02-06T21:14:30.754Z,-1.50
2023-02-06T21:16:58.983Z,-1.50
2023-02-06T21:19:29.398Z,-1.50
2023-02-06T21:21:58.149Z,-1.60
2023-02-06T21:24:27.901Z,-1.60
2023-02-06T21:26:56.446Z,-1.60
2023-02-06T21:29:24.902Z,-1.60
2023-02-06T21:32:07.228Z,-1.60
2023-02-06T21:34:41.291Z,-1.60
2023-02-06T21:37:10.433Z,-1.60
2023-02-06T21:39:41.224Z,-1.60
2023-02-06T21:42:10.369Z,-1.50
2023-02-06T21:44:39.581Z,-1.70
2023-02-06T21:47:10.002Z,-1.70
2023-02-06T21:49:38.917Z,-1.80
2023-02-06T21:52:07.234Z,-1.80
2023-02-06T21:54:35.646Z,-1.90
2023-02-06T21:57:05.733Z,-1.80
2023-02-06T21:59:34.721Z,-1.80
2023-02-06T22:02:03.406Z,-1.80
2023-02-06T22:04:32.280Z,-1.90
2023-02-06T22:07:00.623Z,-1.90
2023-02-06T22:09:29.066Z,-1.90
2023-02-06T22:11:58.350Z,-1.90
2023-02-06T22:14:28.272Z,-1.90
2023-02-06T22:16:56.420Z,-1.90
2023-02-06T22:19:24.589Z,-1.90
2023-02-06T22:21:53.201Z,-1.80
2023-02-06T22:24:21.754Z,-1.60
2023-02-06T22:26:49.897Z,-1.80
2023-02-06T22:29:18.778Z,-1.90
2023-02-06T22:31:48.559Z,-1.90
2023-02-06T22:34:17.982Z,-2.00
2023-02-06T22:36:46.216Z,-2.00
2023-02-06T22:39:15.858Z,-2.00
2023-02-06T22:41:45.680Z,-2.10
2023-02-06T22:44:16.491Z,-2.10
2023-02-06T22:46:48.571Z,-2.00
2023-02-06T22:49:16.989Z,-2.10
2023-02-06T22:51:45.127Z,-2.00
2023-02-06T22:54:14.313Z,-2.00
2023-02-06T22:56:42.743Z,-2.10
2023-02-06T22:59:12.726Z,-2.10
2023-02-06T23:01:43.287Z,-2.10
2023-02-06T23:04:18.533Z,-2.00
2023-02-06T23:06:47.229Z,-2.20
2023-02-06T23:09:18.032Z,-1.80
2023-02-06T23:11:47.078Z,-1.90
2023-02-06T23:14:16.842Z,-2.00
2023-02-06T23:16:44.891Z,-2.10
2023-02-06T23:19:15.839Z,-2.10
2023-02-06T23:21:44.912Z,-2.00
2023-02-06T23:24:13.758Z,-1.90
2023-02-06T23:26:43.311Z,-1.80
2023-02-06T23:29:15.758Z,-1.80
2023-02-06T23:31:44.209Z,-1.80
2023-02-06T23:34:12.416Z,-1.80
2023-02-06T23:36:42.263Z,-1.70
2023-02-06T23:39:11.735Z,-1.80
2023-02-06T23:41:39.955Z,-1.80
2023-02-06T23:44:09.546Z,-1.50
2023-02-06T23:46:39.148Z,-1.80
2023-02-06T23:49:07.647Z,-1.80
2023-02-06T23:51:36.556Z,-1.70
2023-02-06T23:54:06.876Z,-1.80
2023-02-06T23:56:35.241Z,-1.80
2023-02-06T23:59:04.303Z,-1.80
